Friday, July 20, 2018, 4:48 AM EDT
Back to Local

KBKL, Cleveland Burke Lakefront

Location: Cleveland, OH, United States Lat: 41.533
Local Time: 4:48 AM EDT ( 8:48 GMT) Lon: -81.667
Time Zone: US/Eastern Elev: 583 ft

Show me the last for .
Show Decoded

2018-07-20 03:53 METAR KBKL 200753Z 15008KT 10SM SCT065 23/13 A2995 RMK AO2 SLP136 T02280133 =
2018-07-20 02:53 METAR KBKL 200653Z 14007KT 10SM CLR 22/13 A2994 RMK AO2 SLP136 T02220133 =
2018-07-20 01:53 METAR KBKL 200553Z 15006KT 10SM CLR 22/13 A2996 RMK AO2 SLP140 T02220133 10272
                 20222 58010 =
2018-07-20 00:53 METAR KBKL 200453Z 16006KT 10SM CLR 23/13 A2997 RMK AO2 SLP146 T02330128
                 402720161 =
2018-07-19 23:53 METAR KBKL 200353Z 16004KT 10SM CLR 24/13 A2998 RMK AO2 SLP147 T02390128 =
2018-07-19 22:53 METAR KBKL 200253Z 14004KT 10SM CLR 25/14 A2999 RMK AO2 SLP149 T02500139 53005 =
2018-07-19 21:53 METAR KBKL 200153Z 09004KT 10SM CLR 26/14 A2998 RMK AO2 SLP148 T02610144 =
2018-07-19 20:53 METAR KBKL 200053Z 11006KT 10SM FU CLR 27/14 A2997 RMK AO2 SLP143 T02720139 =
2018-07-19 19:53 METAR KBKL 192353Z 02006KT 10SM CLR 27/18 A2997 RMK AO2 SLP144 T02670178 10272
                 20261 58014 =
2018-07-19 18:53 METAR KBKL 192253Z 02009KT 10SM CLR 27/18 A2999 RMK AO2 SLP151 T02670183 =
2018-07-19 17:53 METAR KBKL 192153Z 02010KT 10SM CLR 26/18 A3000 RMK AO2 SLP155 T02610178 =
2018-07-19 16:53 METAR KBKL 192053Z 03014KT 10SM CLR 27/17 A3001 RMK AO2 SLP159 T02670172 56015 =
2018-07-19 15:53 METAR KBKL 191953Z 02016KT 7SM CLR 26/17 A3002 RMK AO2 SLP162 T02610167 =
2018-07-19 14:53 METAR KBKL 191853Z 01012KT 10SM CLR 26/16 A3004 RMK AO2 SLP168 T02610156 =
2018-07-19 13:53 METAR KBKL 191753Z 36011KT 10SM CLR 26/16 A3006 RMK AO2 SLP174 T02610156 10267
                 20189 58014 =
2018-07-19 12:53 METAR KBKL 191653Z 34009KT 10SM CLR 26/13 A3008 RMK AO2 SLP181 T02610133 =
2018-07-19 11:53 METAR KBKL 191553Z VRB03KT 10SM CLR 26/10 A3009 RMK AO2 SLP185 T02610100 =
2018-07-19 10:53 METAR KBKL 191453Z 15006KT 10SM CLR 26/11 A3010 RMK AO2 SLP188 T02560111 50000 =
2018-07-19 09:53 METAR KBKL 191353Z 15007KT 10SM CLR 24/12 A3010 RMK AO2 SLP189 T02390122 =
2018-07-19 08:53 METAR KBKL 191253Z 14006KT 10SM CLR 22/13 A3010 RMK AO2 SLP190 T02170133 =
2018-07-19 07:53 METAR KBKL 191153Z 16008KT 10SM CLR 19/12 A3010 RMK AO2 SLP189 T01890122 10200
                 20161 53008 =
2018-07-19 06:53 METAR KBKL 191053Z 16007KT 10SM CLR 17/12 A3009 RMK AO2 SLP187 T01670117 =
2018-07-19 06:30 METAR KBKL 191030Z 15007KT 10SM FEW002 17/12 A3009 RMK AO2 T01670117 =
2018-07-19 05:53 METAR KBKL 190953Z 14005KT 10SM CLR 17/11 A3008 RMK AO2 SLP182 T01670111 =
2018-07-19 04:53 METAR KBKL 190853Z 15004KT 10SM CLR 17/11 A3007 RMK AO2 SLP181 T01720111 50000 =

Support USWX by starting your Amazon purchase here.